2TN7 weather

Wolf Creek Airport
Kingston, Tennessee, United States

Public forecast

Using degrees Fahrenheit for public forecast. Weather courtesy of forecast.io.

METAR (pilot weather report)

Closest report is Monroe County Airport, 15.6 nm (29.0 km) S. Retrieved 2019/09/21 06:35 UTC (0 seconds ago):

KMNV 210635Z AUTO 23004KT 10SM OVC065 20/15 A3028 RMK A01

TAF (pilot weather forecast)

Closest forecast is McGhee Tyson Airport, 20.5 nm (38.0 km) E. Retrieved 2019/09/21 06:24 UTC (0 seconds ago):

TAF KTYS 210521Z 2106/2206 VRB03KT P6SM FEW100 FM211600 27005KT P6SM FEW250